Time;durP1;ratioP1;P1;durP2;ratioP2;P2;SDS_P1;SDS_P2;PMS_P1;PMS_P2;Temp;Humidity;BMP_temperature;BMP_pressure;BME280_temperature;BME280_humidity;BME280_pressure;Samples;Min_cycle;Max_cycle;Signal;HPM_P1;HPM_P2
2022/08/03 00:02:19;;;;;;;4.50;2.80;;;;;;;19.85;100.00;101474.16;5024320;28;20216;-65
2022/08/03 00:04:44;;;;;;;6.93;2.90;;;;;;;19.80;100.00;101470.63;5028280;28;20006;-65
2022/08/03 00:07:09;;;;;;;6.57;3.22;;;;;;;19.76;100.00;101479.38;5028326;28;20128;-65
2022/08/03 00:09:35;;;;;;;5.03;2.92;;;;;;;19.75;100.00;101480.25;5027625;28;20116;-65
2022/08/03 00:12:00;;;;;;;10.40;3.67;;;;;;;19.73;100.00;101475.00;5027994;28;20299;-65
2022/08/03 00:14:25;;;;;;;6.88;3.22;;;;;;;19.72;100.00;101475.84;5027824;28;20045;-65
2022/08/03 00:16:51;;;;;;;5.25;3.00;;;;;;;19.71;100.00;101470.59;5027278;28;20480;-65
2022/08/03 00:19:16;;;;;;;9.60;3.47;;;;;;;19.68;100.00;101474.97;5028152;28;20488;-65
2022/08/03 00:21:41;;;;;;;6.40;3.42;;;;;;;19.64;100.00;101478.47;5027914;28;20419;-64
2022/08/03 00:24:06;;;;;;;7.07;3.05;;;;;;;19.58;100.00;101475.78;5027256;28;20029;-65
2022/08/03 00:26:32;;;;;;;8.48;3.20;;;;;;;19.50;100.00;101475.75;5027792;28;20564;-65
2022/08/03 00:28:57;;;;;;;7.15;2.80;;;;;;;19.44;100.00;101474.00;5027448;28;20021;-65
2022/08/03 00:31:23;;;;;;;7.03;3.78;;;;;;;19.40;100.00;101469.59;5028195;28;20035;-64
2022/08/03 00:33:48;;;;;;;4.93;2.75;;;;;;;19.35;100.00;101466.06;5027884;28;20065;-65
2022/08/03 00:36:13;;;;;;;6.93;2.90;;;;;;;19.30;100.00;101471.28;5027588;28;20059;-65
2022/08/03 00:38:39;;;;;;;10.40;3.80;;;;;;;19.26;100.00;101461.63;5027623;28;20031;-65
2022/08/03 00:41:04;;;;;;;4.63;3.10;;;;;;;19.25;100.00;101470.38;5026182;28;20037;-65
2022/08/03 00:43:29;;;;;;;8.23;3.13;;;;;;;19.20;100.00;101459.84;5027119;28;20025;-64
2022/08/03 00:45:55;;;;;;;6.03;3.13;;;;;;;19.17;100.00;101459.84;5027571;28;20075;-65
2022/08/03 00:48:21;;;;;;;7.00;3.00;;;;;;;19.14;100.00;101454.53;5027543;28;20489;-65
2022/08/03 00:50:47;;;;;;;6.63;3.10;;;;;;;19.08;100.00;101444.00;5027327;28;20035;-65
2022/08/03 00:53:13;;;;;;;5.75;2.70;;;;;;;19.11;100.00;101457.13;5027019;28;20056;-64
2022/08/03 00:55:39;;;;;;;4.72;3.38;;;;;;;19.11;100.00;101454.50;5027047;28;20018;-64
2022/08/03 00:58:05;;;;;;;6.63;3.00;;;;;;;19.11;100.00;101459.75;5027482;28;20037;-65
2022/08/03 01:00:32;;;;;;;6.15;3.10;;;;;;;19.11;100.00;101456.25;5027219;28;20071;-64
2022/08/03 01:02:58;;;;;;;8.13;3.90;;;;;;;19.06;100.00;101451.88;5027448;28;20389;-65
2022/08/03 01:05:24;;;;;;;7.93;3.58;;;;;;;19.05;100.00;101454.47;5026647;28;20032;-65
2022/08/03 01:08:09;;;;;;;6.97;3.30;;;;;;;19.02;100.00;101451.81;5027803;28;20041;-65
2022/08/03 01:10:53;;;;;;;7.30;3.13;;;;;;;19.03;100.00;101448.34;5027249;28;20112;-65
2022/08/03 01:13:25;;;;;;;7.18;3.65;;;;;;;18.99;100.00;101439.56;5025749;28;20517;-65
2022/08/03 01:16:13;;;;;;;7.88;4.15;;;;;;;18.94;100.00;101442.13;5026599;28;20115;-65
2022/08/03 01:19:11;;;;;;;7.43;4.07;;;;;;;18.93;100.00;101442.13;5027297;28;20065;-65
2022/08/03 01:21:53;;;;;;;5.18;3.30;;;;;;;18.91;100.00;101439.50;5026944;28;20031;-65
2022/08/03 01:24:36;;;;;;;6.93;3.33;;;;;;;18.93;100.00;101439.50;5027022;28;20037;-65
2022/08/03 01:27:07;;;;;;;5.63;2.90;;;;;;;18.90;100.00;101429.88;5026895;28;20491;-65
2022/08/03 01:29:51;;;;;;;9.10;4.00;;;;;;;18.92;100.00;101436.03;5026657;28;20029;-65
2022/08/03 01:32:20;;;;;;;8.70;3.50;;;;;;;18.90;100.00;101437.75;5013798;28;20144;-65
2022/08/03 01:35:01;;;;;;;7.20;3.35;;;;;;;18.87;100.00;101439.47;5027118;28;20373;-65
2022/08/03 01:37:37;;;;;;;5.28;3.60;;;;;;;18.84;100.00;101435.06;5030997;28;20037;-64
2022/08/03 01:40:04;;;;;;;6.25;3.17;;;;;;;18.84;100.00;101435.06;5030687;28;20500;-65
2022/08/03 01:42:31;;;;;;;4.97;3.25;;;;;;;18.80;100.00;101438.53;5030270;28;20496;-64
2022/08/03 01:44:58;;;;;;;7.63;3.72;;;;;;;18.78;100.00;101427.16;5031209;28;20051;-64
2022/08/03 01:47:25;;;;;;;7.28;3.45;;;;;;;18.76;100.00;101426.28;5031274;28;20461;-64
2022/08/03 01:49:52;;;;;;;6.88;3.83;;;;;;;18.72;100.00;101431.50;5030811;28;20576;-64
2022/08/03 01:52:19;;;;;;;6.38;3.42;;;;;;;18.71;100.00;101429.75;5030207;28;20033;-64
2022/08/03 01:54:49;;;;;;;5.85;3.45;;;;;;;18.70;100.00;101429.72;5030784;28;20021;-64
2022/08/03 01:57:16;;;;;;;4.13;3.33;;;;;;;18.70;100.00;101427.09;5030900;28;20470;-64
2022/08/03 01:59:43;;;;;;;5.32;3.58;;;;;;;18.70;100.00;101421.84;5030541;28;20082;-64
2022/08/03 02:02:13;;;;;;;4.82;3.60;;;;;;;18.70;100.00;101420.13;5030323;28;20037;-64
2022/08/03 02:04:39;;;;;;;5.43;3.45;;;;;;;18.69;100.00;101428.84;5030541;28;20084;-64
2022/08/03 02:07:06;;;;;;;6.20;4.20;;;;;;;18.66;100.00;101426.19;5030796;28;20087;-64
2022/08/03 02:09:33;;;;;;;6.97;3.13;;;;;;;18.64;100.00;101420.06;5030418;28;20025;-64
2022/08/03 02:12:00;;;;;;;6.82;3.40;;;;;;;18.61;100.00;101417.41;5030347;28;20029;-64
2022/08/03 02:14:27;;;;;;;7.97;3.58;;;;;;;18.57;100.00;101426.13;5030124;28;20049;-64
2022/08/03 02:16:54;;;;;;;8.40;3.30;;;;;;;18.52;100.00;101422.59;5028723;28;20027;-64
2022/08/03 02:19:20;;;;;;;5.15;3.78;;;;;;;18.50;100.00;101426.94;5030046;28;20038;-64
2022/08/03 02:21:47;;;;;;;5.43;3.30;;;;;;;18.46;100.00;101424.28;5029597;28;20033;-64
2022/08/03 02:24:13;;;;;;;4.78;3.50;;;;;;;18.42;100.00;101427.75;5030248;28;20088;-63
2022/08/03 02:26:40;;;;;;;6.40;3.22;;;;;;;18.40;100.00;101423.38;5029946;28;20473;-64
2022/08/03 02:29:12;;;;;;;5.00;3.72;;;;;;;18.36;100.00;101430.34;5030026;28;20101;-63
2022/08/03 02:31:39;;;;;;;6.45;3.35;;;;;;;18.32;100.00;101425.91;5030155;28;20056;-64
2022/08/03 02:34:10;;;;;;;9.60;3.20;;;;;;;18.30;100.00;101428.53;5029843;28;20032;-64
2022/08/03 02:36:38;;;;;;;7.20;3.55;;;;;;;18.26;100.00;101420.63;5029791;28;20370;-64
2022/08/03 02:39:05;;;;;;;4.70;2.97;;;;;;;18.22;100.00;101423.19;5030030;28;20523;-64
2022/08/03 02:41:36;;;;;;;5.88;3.72;;;;;;;18.18;100.00;101421.44;5030092;28;20021;-64
2022/08/03 02:44:07;;;;;;;7.82;3.55;;;;;;;18.14;100.00;101411.78;5029869;28;20029;-64
2022/08/03 02:46:34;;;;;;;;;;;;;;;18.09;100.00;101414.34;5029869;28;20021;-64
2022/08/03 02:49:01;;;;;;;7.28;3.30;;;;;;;18.08;100.00;101412.56;5029915;28;19920;-64
2022/08/03 02:51:29;;;;;;;8.80;4.10;;;;;;;18.07;100.00;101417.78;5029703;28;20151;-64
2022/08/03 02:53:56;;;;;;;7.35;4.13;;;;;;;18.06;100.00;101413.41;5029567;28;20037;-64
2022/08/03 02:56:24;;;;;;;11.25;4.53;;;;;;;18.10;100.00;101421.31;5029201;28;20361;-64
2022/08/03 02:58:52;;;;;;;7.57;4.50;;;;;;;18.12;100.00;101413.47;5029885;28;20102;-64
2022/08/03 03:01:23;;;;;;;9.10;4.72;;;;;;;18.17;100.00;101405.69;5029400;28;20116;-63
2022/08/03 03:03:50;;;;;;;;;;;;;;;18.22;100.00;101406.63;5030073;28;20894;-64
2022/08/03 03:06:17;;;;;;;9.55;3.90;;;;;;;18.26;100.00;101408.38;5029348;28;19916;-64
2022/08/03 03:08:42;;;;;;;7.25;3.78;;;;;;;18.30;100.00;101411.91;5029689;28;20024;-64
2022/08/03 03:11:10;;;;;;;6.43;4.32;;;;;;;18.34;100.00;101403.22;5029016;28;20427;-64
2022/08/03 03:13:35;;;;;;;7.97;3.90;;;;;;;18.38;100.00;101412.88;5029636;28;20280;-64
2022/08/03 03:16:03;;;;;;;7.85;3.40;;;;;;;18.40;100.00;101411.16;5029330;28;20032;-64
2022/08/03 03:18:31;;;;;;;5.78;3.28;;;;;;;18.39;100.00;101412.00;5029120;28;20029;-64
2022/08/03 03:20:57;;;;;;;7.13;3.63;;;;;;;18.41;100.00;101422.50;5027934;28;20043;-64
2022/08/03 03:23:25;;;;;;;6.70;3.85;;;;;;;18.39;100.00;101417.25;5028281;28;20096;-64
2022/08/03 03:25:51;;;;;;;6.75;3.58;;;;;;;18.37;100.00;101408.47;5028939;28;20075;-64
2022/08/03 03:28:17;;;;;;;5.25;3.70;;;;;;;18.37;100.00;101411.09;5028680;28;20409;-64
2022/08/03 03:30:43;;;;;;;8.05;4.13;;;;;;;18.34;100.00;101408.44;5029188;28;20043;-64
2022/08/03 03:33:08;;;;;;;9.43;3.58;;;;;;;18.34;100.00;101405.84;5028741;28;20035;-64
2022/08/03 03:35:34;;;;;;;10.23;4.03;;;;;;;18.31;100.00;101408.44;5028490;28;20534;-64
2022/08/03 03:37:59;;;;;;;6.13;3.95;;;;;;;18.30;100.00;101407.53;5028754;28;20112;-64
2022/08/03 03:40:25;;;;;;;8.07;4.53;;;;;;;18.29;100.00;101404.91;5028710;28;20048;-64
2022/08/03 03:42:51;;;;;;;6.18;3.72;;;;;;;18.26;100.00;101404.91;5028507;28;20029;-64
2022/08/03 03:45:17;;;;;;;5.72;3.60;;;;;;;18.23;100.00;101410.97;5028287;28;20033;-64
2022/08/03 03:47:42;;;;;;;5.97;3.28;;;;;;;18.21;100.00;101408.34;5027995;28;20356;-64
2022/08/03 03:50:09;;;;;;;7.78;3.63;;;;;;;18.19;100.00;101410.06;5027530;28;20052;-64
2022/08/03 03:52:35;;;;;;;5.93;3.40;;;;;;;18.15;100.00;101403.03;5026774;28;20060;-64
2022/08/03 03:55:00;;;;;;;9.23;3.85;;;;;;;18.13;100.00;101404.75;5026630;28;20060;-64
2022/08/03 03:57:26;;;;;;;10.45;4.20;;;;;;;18.11;100.00;101409.09;5025885;28;20037;-64
2022/08/03 03:59:51;;;;;;;6.40;3.60;;;;;;;18.09;100.00;101402.97;5025334;28;20584;-64
2022/08/03 04:02:17;;;;;;;8.45;3.65;;;;;;;18.07;100.00;101408.19;5026469;28;20057;-64
2022/08/03 04:13:02;;;;;;;9.55;3.83;;;;;;;18.05;100.00;101402.03;5027080;28;20044;-64
2022/08/03 04:15:30;;;;;;;7.15;3.40;;;;;;;18.06;100.00;101402.94;5026541;28;20029;-65
2022/08/03 04:17:57;;;;;;;10.50;3.33;;;;;;;18.07;100.00;101399.44;5026674;28;20025;-64
2022/08/03 04:20:26;;;;;;;6.97;3.10;;;;;;;18.08;100.00;101399.44;5027097;28;20028;-64
2022/08/03 04:22:54;;;;;;;5.75;3.85;;;;;;;18.09;100.00;101408.19;5028103;28;20069;-64
2022/08/03 04:25:24;;;;;;;7.00;3.00;;;;;;;18.10;100.00;101409.94;5025961;28;20153;-64
2022/08/03 04:27:54;;;;;;;9.55;4.13;;;;;;;18.08;100.00;101403.84;5026880;28;20039;-64
2022/08/03 04:30:21;;;;;;;7.03;3.30;;;;;;;18.06;100.00;101403.78;5027141;28;20144;-64
2022/08/03 04:32:50;;;;;;;7.90;4.15;;;;;;;18.06;100.00;101406.41;5027220;28;20028;-64
2022/08/03 04:35:17;;;;;;;8.68;3.67;;;;;;;18.08;100.00;101411.69;5027132;28;20036;-64
2022/08/03 04:37:46;;;;;;;10.02;3.90;;;;;;;18.08;100.00;101403.84;5025596;28;20087;-64
2022/08/03 04:40:21;;;;;;;6.38;3.00;;;;;;;18.08;100.00;101406.47;5024405;28;20043;-64
2022/08/03 04:42:48;;;;;;;8.02;4.03;;;;;;;18.11;100.00;101411.72;5023266;28;20021;-64
2022/08/03 04:45:15;;;;;;;9.65;3.78;;;;;;;18.10;100.00;101409.94;5024764;28;20053;-64
2022/08/03 04:47:41;;;;;;;5.72;3.20;;;;;;;18.15;100.00;101413.53;5022958;28;20104;-64
2022/08/03 04:50:07;;;;;;;7.57;3.28;;;;;;;18.18;100.00;101410.06;5027057;28;20029;-64
2022/08/03 04:52:33;;;;;;;6.85;3.35;;;;;;;18.22;100.00;101420.59;5027335;28;20109;-64
2022/08/03 04:54:59;;;;;;;6.30;3.40;;;;;;;18.24;100.00;101421.47;5027038;28;20128;-63
2022/08/03 04:57:24;;;;;;;7.35;3.40;;;;;;;18.26;100.00;101426.72;5025455;28;20108;-63
2022/08/03 04:59:53;;;;;;;8.35;3.88;;;;;;;18.28;100.00;101427.63;5026958;28;20473;-64
2022/08/03 05:02:19;;;;;;;8.00;3.00;;;;;;;18.32;100.00;101431.16;5027423;28;20485;-64
2022/08/03 05:04:45;;;;;;;6.55;2.95;;;;;;;18.35;100.00;101428.56;5027427;28;20049;-64
2022/08/03 05:07:11;;;;;;;6.07;3.42;;;;;;;18.39;100.00;101426.84;5026984;28;20120;-64
2022/08/03 05:09:37;;;;;;;9.15;3.42;;;;;;;18.43;100.00;101432.16;5026118;28;20021;-64
2022/08/03 05:12:03;;;;;;;6.25;2.92;;;;;;;18.48;100.00;101434.81;5025737;28;20028;-64
2022/08/03 05:14:28;;;;;;;7.60;3.00;;;;;;;18.54;100.00;101436.59;5025812;28;20100;-64
2022/08/03 05:16:54;;;;;;;8.23;3.70;;;;;;;18.59;100.00;101441.03;5024907;28;20025;-64
2022/08/03 05:19:19;;;;;;;4.85;2.80;;;;;;;18.65;100.00;101437.59;5026056;28;20026;-64
2022/08/03 05:21:45;;;;;;;6.65;3.10;;;;;;;18.70;100.00;101440.22;5025815;28;20439;-64
2022/08/03 05:24:10;;;;;;;4.45;2.60;;;;;;;18.77;100.00;101446.41;5025423;28;20017;-64
2022/08/03 05:26:36;;;;;;;5.93;3.05;;;;;;;18.81;100.00;101441.19;5025450;28;20021;-64
2022/08/03 05:29:01;;;;;;;7.03;3.58;;;;;;;18.85;100.00;101442.09;5026937;28;20021;-64
2022/08/03 05:31:26;;;;;;;7.93;3.22;;;;;;;18.90;100.00;101440.38;5026325;28;20106;-64
2022/08/03 05:33:52;;;;;;;5.00;2.88;;;;;;;18.96;100.00;101440.41;5026496;28;20061;-64
2022/08/03 05:36:17;;;;;;;14.45;3.30;;;;;;;19.03;100.00;101443.09;5026544;28;20021;-64
2022/08/03 05:38:44;;;;;;;10.30;2.65;;;;;;;19.11;100.00;101444.00;5026946;28;20153;-64
2022/08/03 05:41:09;;;;;;;12.40;3.00;;;;;;;19.21;100.00;101439.72;5025994;28;20052;-64
2022/08/03 05:43:34;;;;;;;8.35;2.88;;;;;;;19.31;100.00;101451.16;5026455;28;20060;-64
2022/08/03 05:46:00;;;;;;;7.38;2.90;;;;;;;19.41;100.00;101454.72;5025143;28;20112;-64
2022/08/03 05:48:25;;;;;;;8.45;3.30;;;;;;;19.51;100.00;101447.72;5017314;28;20030;-64
2022/08/03 05:50:50;;;;;;;12.38;2.70;;;;;;;19.60;100.00;101458.28;5024560;28;20025;-64
2022/08/03 05:53:16;;;;;;;6.07;3.03;;;;;;;19.72;100.00;101464.44;5024549;28;20421;-64
2022/08/03 05:55:41;;;;;;;8.23;2.92;;;;;;;19.83;100.00;101465.38;5026319;28;20037;-64
2022/08/03 05:58:06;;;;;;;9.23;2.85;;;;;;;19.94;100.00;101457.53;5024866;28;20033;-64
2022/08/03 06:00:32;;;;;;;8.48;2.65;;;;;;;20.07;100.00;101463.72;5025054;28;20032;-64
2022/08/03 06:02:57;;;;;;;7.13;2.30;;;;;;;20.18;100.00;101458.50;5025381;28;20462;-64
2022/08/03 06:05:25;;;;;;;6.88;2.17;;;;;;;20.29;100.00;101458.50;5025284;28;20036;-64
2022/08/03 06:07:51;;;;;;;6.22;1.80;;;;;;;20.39;100.00;101455.00;5025511;28;20029;-64
2022/08/03 06:10:16;;;;;;;7.30;2.42;;;;;;;20.51;100.00;101453.22;5025724;28;20036;-64
2022/08/03 06:12:41;;;;;;;8.70;2.92;;;;;;;20.64;99.60;101455.00;5025857;28;20028;-64
2022/08/03 06:15:07;;;;;;;7.10;2.67;;;;;;;20.74;97.92;101455.84;5025608;28;20396;-64
2022/08/03 06:17:33;;;;;;;7.85;2.00;;;;;;;20.86;97.12;101452.34;5025661;28;20646;-64
2022/08/03 06:19:58;;;;;;;5.40;1.75;;;;;;;20.92;95.09;101459.34;5024446;28;20044;-64
2022/08/03 06:22:23;;;;;;;6.30;1.95;;;;;;;21.01;93.92;101447.97;5027689;28;20021;-64
2022/08/03 06:24:49;;;;;;;6.13;2.60;;;;;;;21.09;93.78;101456.72;5029093;28;20014;-65
2022/08/03 06:27:15;;;;;;;5.75;1.92;;;;;;;21.16;92.82;101454.06;5028886;28;20029;-64
2022/08/03 06:29:40;;;;;;;4.43;1.67;;;;;;;21.30;92.73;101448.78;5029316;28;20410;-65
2022/08/03 06:32:06;;;;;;;7.22;2.10;;;;;;;21.47;92.29;101453.97;5028345;28;20033;-65
2022/08/03 06:34:31;;;;;;;7.22;2.45;;;;;;;21.57;90.84;101453.03;5029343;28;20024;-65
2022/08/03 06:36:56;;;;;;;5.65;2.00;;;;;;;21.63;90.37;101456.53;5029396;28;20350;-65
2022/08/03 06:39:21;;;;;;;5.35;1.98;;;;;;;21.65;88.97;101449.50;5030036;28;20036;-64
2022/08/03 06:41:47;;;;;;;4.85;1.73;;;;;;;21.75;89.06;101453.81;5029400;28;20029;-64
2022/08/03 06:44:12;;;;;;;8.25;1.60;;;;;;;21.90;88.64;101467.84;5029630;28;20104;-64
2022/08/03 06:46:38;;;;;;;6.53;1.83;;;;;;;21.98;87.12;101463.44;5029933;28;20025;-64
2022/08/03 06:49:03;;;;;;;7.80;2.00;;;;;;;22.18;86.74;101472.97;5028576;28;20029;-64
2022/08/03 06:51:28;;;;;;;7.13;2.05;;;;;;;22.26;85.07;101467.63;5028733;28;20037;-65
2022/08/03 06:53:54;;;;;;;6.13;1.63;;;;;;;22.37;84.71;101470.19;5029180;28;20037;-65
2022/08/03 06:56:19;;;;;;;6.20;1.90;;;;;;;22.45;83.73;101467.50;5027978;28;20432;-65
2022/08/03 06:58:46;;;;;;;6.47;2.92;;;;;;;22.53;83.26;101469.19;5027833;28;20029;-65
2022/08/03 07:01:11;;;;;;;5.30;1.70;;;;;;;22.69;83.30;101465.56;5028043;28;20017;-65
2022/08/03 07:03:37;;;;;;;4.80;1.85;;;;;;;22.87;83.35;101464.50;5027522;28;20026;-65
2022/08/03 07:06:02;;;;;;;7.20;2.05;;;;;;;23.05;82.85;101462.56;5027903;28;20215;-65
2022/08/03 07:08:27;;;;;;;5.55;2.17;;;;;;;23.27;81.96;101464.09;5027387;28;20432;-65
2022/08/03 07:10:53;;;;;;;10.10;2.08;;;;;;;23.41;79.86;101476.28;5027595;28;20021;-65
2022/08/03 07:13:18;;;;;;;4.65;1.85;;;;;;;23.48;77.97;101472.69;5027403;28;20199;-66
2022/08/03 07:15:43;;;;;;;7.57;1.63;;;;;;;23.41;77.96;101475.38;5028643;28;20032;-65
2022/08/03 07:18:09;;;;;;;5.00;1.92;;;;;;;23.47;77.94;101481.53;5028153;28;20034;-66
2022/08/03 07:20:34;;;;;;;10.10;1.80;;;;;;;23.55;76.12;101483.22;5028699;28;20116;-65
2022/08/03 07:22:59;;;;;;;10.13;2.05;;;;;;;23.63;76.61;101478.69;5028675;28;20323;-64
2022/08/03 07:25:25;;;;;;;5.43;2.47;;;;;;;23.56;76.30;101485.84;5029387;28;20104;-65
2022/08/03 07:27:50;;;;;;;8.13;1.80;;;;;;;23.65;75.96;101479.53;5028894;28;20037;-65
2022/08/03 07:30:16;;;;;;;7.38;2.35;;;;;;;23.68;76.25;101490.09;5029060;28;20025;-65
2022/08/03 07:32:41;;;;;;;6.47;1.40;;;;;;;23.90;76.34;101487.16;5028941;28;20080;-66
2022/08/03 07:35:08;;;;;;;8.00;2.03;;;;;;;23.95;74.22;101495.00;5029073;28;20876;-66
2022/08/03 07:37:33;;;;;;;7.20;2.42;;;;;;;24.20;74.25;101486.75;5029107;28;20037;-65
2022/08/03 07:40:00;;;;;;;5.70;1.85;;;;;;;24.16;73.09;101491.19;5029219;28;20500;-65
2022/08/03 07:42:29;;;;;;;5.53;2.10;;;;;;;24.50;72.49;101483.66;5028509;28;20108;-65
2022/08/03 07:44:55;;;;;;;6.53;1.80;;;;;;;24.59;70.96;101479.06;5028128;28;20079;-65
2022/08/03 07:47:26;;;;;;;8.18;2.00;;;;;;;24.78;70.27;101477.88;5028590;28;20044;-65
2022/08/03 07:49:51;;;;;;;7.68;1.75;;;;;;;24.93;69.15;101480.25;5028605;28;20029;-65
2022/08/03 07:55:01;;;;;;;9.63;2.03;;;;;;;25.41;67.27;101481.13;5028033;28;20455;-65
2022/08/03 07:57:26;;;;;;;5.50;1.92;;;;;;;25.70;66.88;101477.91;5027631;28;20033;-66
2022/08/03 07:59:51;;;;;;;7.35;2.15;;;;;;;26.02;64.84;101476.31;5028908;28;20767;-65
2022/08/03 08:02:17;;;;;;;10.52;2.53;;;;;;;25.84;62.94;101480.25;5028390;28;20039;-65
2022/08/03 08:04:42;;;;;;;11.38;2.15;;;;;;;26.07;64.08;101478.84;5028339;28;20020;-66
2022/08/03 08:07:08;;;;;;;7.72;2.22;;;;;;;26.09;62.97;101483.22;5027889;28;20026;-65
2022/08/03 08:09:34;;;;;;;6.32;2.30;;;;;;;26.12;62.85;101479.66;5028280;28;20022;-65
2022/08/03 08:11:59;;;;;;;7.78;2.50;;;;;;;26.36;63.57;101485.28;5027542;28;20025;-65
2022/08/03 08:14:24;;;;;;;8.18;2.20;;;;;;;26.61;63.03;101477.56;5025674;28;20045;-65
2022/08/03 08:16:50;;;;;;;6.65;2.38;;;;;;;26.47;61.92;101475.28;5025843;28;20052;-65
2022/08/03 08:19:16;;;;;;;10.25;2.40;;;;;;;26.55;60.46;101466.25;5027877;28;20033;-66
2022/08/03 08:21:44;;;;;;;11.40;2.45;;;;;;;26.50;60.04;101472.53;5027007;28;20361;-65
2022/08/03 08:24:09;;;;;;;7.55;1.88;;;;;;;26.76;60.01;101477.22;5027895;28;20040;-65
2022/08/03 08:26:35;;;;;;;7.45;1.80;;;;;;;27.04;59.52;101465.88;5027134;28;20469;-66
2022/08/03 08:29:01;;;;;;;9.07;2.05;;;;;;;27.03;58.34;101472.06;5027993;28;20094;-65
2022/08/03 08:31:26;;;;;;;9.88;2.42;;;;;;;27.18;58.46;101473.47;5028115;28;20033;-65
2022/08/03 08:33:51;;;;;;;8.50;2.63;;;;;;;27.31;57.98;101469.53;5026796;28;20017;-66
2022/08/03 08:36:17;;;;;;;7.15;1.75;;;;;;;27.51;58.42;101469.84;5026201;28;20037;-66
2022/08/03 08:38:43;;;;;;;10.00;2.28;;;;;;;27.51;57.02;101475.16;5028711;28;20064;-65
2022/08/03 08:41:10;;;;;;;8.43;2.53;;;;;;;27.51;57.20;101473.38;5027831;28;20024;-65
2022/08/03 08:43:36;;;;;;;14.63;3.13;;;;;;;27.29;56.23;101463.38;5029039;28;20440;-66
2022/08/03 08:46:02;;;;;;;9.85;2.90;;;;;;;26.93;58.07;101464.34;5028813;28;20108;-66
2022/08/03 08:48:29;;;;;;;7.60;2.25;;;;;;;26.92;58.18;101462.59;5028715;28;20025;-65
2022/08/03 08:50:56;;;;;;;10.18;2.20;;;;;;;27.17;57.61;101463.72;5028343;28;20029;-66
2022/08/03 08:53:25;;;;;;;8.70;2.58;;;;;;;27.34;56.54;101471.25;5028941;28;20562;-65
2022/08/03 08:55:54;;;;;;;10.65;2.25;;;;;;;27.31;55.60;101466.88;5028650;28;20041;-65
2022/08/03 08:58:22;;;;;;;12.15;2.65;;;;;;;27.40;55.66;101462.22;5028842;28;20029;-65
2022/08/03 09:00:48;;;;;;;8.35;2.30;;;;;;;27.58;55.68;101474.94;5027939;28;20027;-66
2022/08/03 09:03:13;;;;;;;8.07;2.50;;;;;;;27.95;55.93;101469.44;5027932;28;20033;-65
2022/08/03 09:05:41;;;;;;;9.02;2.47;;;;;;;27.87;54.14;101466.13;5027180;28;20021;-65
2022/08/03 09:08:07;;;;;;;11.10;2.22;;;;;;;27.78;54.34;101478.81;5027702;28;20025;-66
2022/08/03 09:10:33;;;;;;;11.55;2.10;;;;;;;28.03;55.13;101475.38;5027387;28;20167;-65
2022/08/03 09:12:59;;;;;;;8.68;1.90;;;;;;;28.31;55.18;101468.31;5027701;28;20083;-65
2022/08/03 09:15:27;;;;;;;10.65;2.22;;;;;;;28.14;52.88;101466.19;5026930;28;20045;-66
2022/08/03 09:17:55;;;;;;;13.48;2.22;;;;;;;28.27;52.43;101462.19;5027546;28;20026;-65
2022/08/03 09:20:23;;;;;;;8.82;2.38;;;;;;;28.42;51.85;101470.63;5027179;28;20027;-66
2022/08/03 09:22:59;;;;;;;8.30;1.95;;;;;;;28.61;51.66;101467.31;5027731;28;20115;-65
2022/08/03 09:25:39;;;;;;;16.15;3.22;;;;;;;28.69;51.33;101475.94;5024757;28;20018;-65
2022/08/03 09:28:15;;;;;;;8.95;1.92;;;;;;;28.65;50.09;101463.63;5025547;28;20036;-65
2022/08/03 09:30:43;;;;;;;11.63;2.53;;;;;;;28.59;50.52;101471.84;5025109;28;20017;-66
2022/08/03 09:33:10;;;;;;;10.90;2.58;;;;;;;28.71;50.49;101468.75;5027231;28;20033;-66
2022/08/03 09:35:46;;;;;;;9.75;2.22;;;;;;;28.94;50.12;101456.41;5026139;28;20600;-66
2022/08/03 09:38:14;;;;;;;7.93;2.08;;;;;;;28.86;48.69;101458.47;5027195;28;20025;-66
2022/08/03 09:40:40;;;;;;;7.30;2.00;;;;;;;28.99;49.60;101458.91;5024944;28;20030;-65
2022/08/03 09:43:09;;;;;;;10.65;2.83;;;;;;;29.00;50.07;101461.53;5026901;28;20492;-66
2022/08/03 09:45:36;;;;;;;9.05;2.20;;;;;;;29.04;49.77;101466.75;5025528;28;20030;-65
2022/08/03 09:48:21;;;;;;;11.15;2.75;;;;;;;29.28;49.48;101462.31;5026680;28;20056;-66
2022/08/03 09:50:48;;;;;;;13.70;2.30;;;;;;;29.41;49.15;101457.41;5024290;28;20079;-65
2022/08/03 09:53:14;;;;;;;12.85;2.40;;;;;;;29.64;48.13;101458.31;5025455;28;20037;-66
2022/08/03 09:55:49;;;;;;;11.05;2.17;;;;;;;29.53;47.62;101458.72;5027208;28;20033;-66
2022/08/03 09:58:15;;;;;;;11.07;2.45;;;;;;;29.12;47.93;101462.03;5029923;28;20040;-66
2022/08/03 10:00:51;;;;;;;13.73;2.97;;;;;;;29.13;49.52;101466.41;5030611;28;20025;-66
2022/08/03 10:03:16;;;;;;;11.45;2.50;;;;;;;29.40;48.68;101458.31;5029418;28;20028;-66
2022/08/03 10:05:43;;;;;;;16.08;2.70;;;;;;;29.56;48.16;101455.03;5030262;28;20025;-66
2022/08/03 10:08:15;;;;;;;9.15;2.20;;;;;;;29.43;47.79;101463.50;5030305;28;20049;-66
2022/08/03 10:10:45;;;;;;;11.93;2.88;;;;;;;29.14;47.96;101457.50;5030901;28;20033;-65
2022/08/03 10:13:12;;;;;;;;;;;;;;;29.24;47.76;101460.69;5030054;28;20049;-65
2022/08/03 10:15:38;;;;;;;11.77;2.50;;;;;;;29.47;48.10;101451.81;5028980;28;20023;-66
2022/08/03 10:18:04;;;;;;;9.07;2.67;;;;;;;29.46;47.31;101455.41;5029707;28;20037;-66
2022/08/03 10:20:31;;;;;;;10.68;2.45;;;;;;;29.78;47.12;101462.22;5030238;28;20140;-65
2022/08/03 10:22:58;;;;;;;17.50;2.70;;;;;;;29.27;47.84;101460.56;5029360;28;20021;-66
2022/08/03 10:25:24;;;;;;;9.57;2.65;;;;;;;29.12;48.19;101448.69;5022507;28;20021;-66
2022/08/03 10:27:51;;;;;;;13.27;2.95;;;;;;;29.24;47.35;101447.34;5030377;28;20036;-66
2022/08/03 10:30:17;;;;;;;11.40;3.00;;;;;;;29.53;48.07;101449.81;5030160;28;20132;-66
2022/08/03 10:32:48;;;;;;;9.13;2.35;;;;;;;29.87;47.55;101451.19;5030205;28;20033;-65
2022/08/03 10:35:19;;;;;;;11.68;2.60;;;;;;;30.15;46.29;101450.03;5029753;28;20466;-66
2022/08/03 10:37:55;;;;;;;10.32;3.63;;;;;;;30.30;45.37;101439.69;5029498;28;20062;-66
2022/08/03 10:40:22;;;;;;;15.18;3.17;;;;;;;30.42;45.40;101444.50;5029528;28;20029;-66
2022/08/03 10:42:50;;;;;;;11.27;3.08;;;;;;;30.62;45.87;101442.75;5029493;28;20029;-66
2022/08/03 10:45:21;;;;;;;11.63;3.20;;;;;;;30.58;44.68;101440.31;5029270;28;20029;-66
2022/08/03 10:47:48;;;;;;;14.07;3.40;;;;;;;30.44;44.82;101434.63;5029674;28;20029;-66
2022/08/03 10:50:14;;;;;;;8.88;2.33;;;;;;;30.53;44.91;101429.78;5022031;28;20056;-66
2022/08/03 10:53:05;;;;;;;13.18;2.92;;;;;;;30.55;44.54;101430.59;5028761;28;20033;-66
2022/08/03 10:58:37;;;;;;;16.17;2.53;;;;;;;30.87;45.72;101414.97;5029303;28;20032;-66
2022/08/03 11:01:07;;;;;;;10.55;2.28;;;;;;;31.00;44.53;101419.75;5028593;28;20471;-66
2022/08/03 11:03:33;;;;;;;6.70;2.17;;;;;;;31.20;44.79;101420.63;5029261;28;20562;-65
2022/08/03 11:06:19;;;;;;;10.55;2.38;;;;;;;31.22;44.17;101410.72;5028562;28;20143;-65
2022/08/03 11:09:09;;;;;;;8.57;2.53;;;;;;;31.06;42.74;101405.22;5028484;28;20428;-65
2022/08/03 11:11:35;;;;;;;9.40;2.33;;;;;;;30.86;42.92;101402.53;5022071;28;20033;-66
2022/08/03 11:14:10;;;;;;;13.25;2.47;;;;;;;31.02;43.16;101401.81;5027477;28;20542;-66
2022/08/03 11:16:46;;;;;;;13.00;2.45;;;;;;;31.13;42.69;101395.97;5028005;28;20083;-66
2022/08/03 11:19:14;;;;;;;10.07;2.38;;;;;;;31.23;43.30;101399.09;5029068;28;20029;-66
2022/08/03 11:21:51;;;;;;;10.32;1.88;;;;;;;31.42;43.20;101398.25;5028956;28;20029;-66
2022/08/03 11:24:35;;;;;;;10.98;2.05;;;;;;;31.66;43.56;101411.41;5028642;28;20171;-67
2022/08/03 11:27:34;;;;;;;10.63;2.55;;;;;;;31.73;42.81;101404.78;5028908;28;20057;-66
2022/08/03 11:30:10;;;;;;;7.43;1.98;;;;;;;31.69;42.78;101406.75;5028958;28;20041;-66
2022/08/03 11:32:38;;;;;;;7.20;1.65;;;;;;;31.86;42.95;101402.38;5029065;28;20063;-66
2022/08/03 11:35:46;;;;;;;10.57;2.40;;;;;;;31.95;41.87;101401.06;5028045;28;20026;-66
2022/08/03 11:38:12;;;;;;;9.70;2.13;;;;;;;31.76;41.51;101401.97;4986458;28;20026;-65